Time;durP1;ratioP1;P1;durP2;ratioP2;P2;SDS_P1;SDS_P2;PMS_P1;PMS_P2;Temp;Humidity;BMP_temperature;BMP_pressure;BME280_temperature;BME280_humidity;BME280_pressure;Samples;Min_cycle;Max_cycle;Signal;HPM_P1;HPM_P2
2022/11/18 00:01:07;;;;;;;25.77;18.23;;;6.90;99.90;;;;;;5092146;28;20126;-77
2022/11/18 00:03:33;;;;;;;24.85;18.48;;;6.90;99.90;;;;;;5092259;28;20047;-77
2022/11/18 00:05:58;;;;;;;30.85;19.42;;;6.90;99.90;;;;;;5092211;28;20048;-77
2022/11/18 00:08:25;;;;;;;27.58;20.00;;;6.90;99.90;;;;;;5091725;28;20520;-76
2022/11/18 00:10:51;;;;;;;27.48;19.40;;;6.90;99.90;;;;;;5092391;28;20044;-77
2022/11/18 00:16:02;;;;;;;26.05;19.73;;;6.90;99.90;;;;;;5092009;28;20059;-77
2022/11/18 00:18:28;;;;;;;26.92;19.77;;;6.90;99.90;;;;;;5091710;28;20105;-78
2022/11/18 00:20:54;;;;;;;25.80;18.42;;;6.90;99.90;;;;;;5091980;28;20048;-78
2022/11/18 00:23:20;;;;;;;25.27;19.70;;;6.90;99.90;;;;;;5091707;28;20044;-77
2022/11/18 00:25:45;;;;;;;24.90;20.02;;;6.90;99.90;;;;;;5092172;28;20380;-77
2022/11/18 00:28:11;;;;;;;27.25;19.13;;;7.70;99.90;;;;;;5069839;28;20151;-76
2022/11/18 00:30:36;;;;;;;26.45;19.45;;;6.90;99.90;;;;;;5071633;28;20420;-76
2022/11/18 00:33:02;;;;;;;28.88;19.67;;;6.90;99.90;;;;;;5091491;28;20056;-76
2022/11/18 00:35:28;;;;;;;28.55;19.15;;;6.90;99.90;;;;;;5091718;28;20117;-77
2022/11/18 00:37:53;;;;;;;30.08;20.05;;;6.90;99.90;;;;;;5091540;28;20123;-78
2022/11/18 00:40:19;;;;;;;32.05;19.38;;;6.90;99.90;;;;;;5091352;28;20063;-79
2022/11/18 00:42:50;;;;;;;31.35;19.70;;;6.90;99.90;;;;;;5091830;28;20101;-77
2022/11/18 00:45:17;;;;;;;27.30;19.52;;;7.00;99.90;;;;;;5091288;28;20040;-78
2022/11/18 00:47:43;;;;;;;28.58;20.02;;;7.00;99.90;;;;;;5091606;28;20040;-77
2022/11/18 00:50:09;;;;;;;26.67;19.30;;;6.90;99.90;;;;;;5091350;28;20089;-77
2022/11/18 00:52:34;;;;;;;30.92;21.35;;;6.90;99.90;;;;;;5091980;28;20578;-78
2022/11/18 00:55:00;;;;;;;27.88;19.67;;;7.20;99.90;;;;;;5091463;28;20056;-76
2022/11/18 00:57:26;;;;;;;28.52;19.88;;;6.90;99.90;;;;;;5091185;28;20040;-78
2022/11/18 00:59:51;;;;;;;31.25;20.70;;;6.90;99.90;;;;;;5091357;28;20452;-75
2022/11/18 01:02:17;;;;;;;33.70;21.15;;;7.00;99.90;;;;;;5091424;28;20080;-77
2022/11/18 01:04:42;;;;;;;29.50;20.00;;;6.90;99.90;;;;;;5090671;28;20475;-77
2022/11/18 01:07:08;;;;;;;31.60;21.60;;;7.00;99.90;;;;;;5091104;28;20074;-78
2022/11/18 01:09:34;;;;;;;32.05;21.40;;;6.90;99.90;;;;;;5090919;28;20044;-79
2022/11/18 01:14:44;;;;;;;30.93;20.40;;;7.00;99.90;;;;;;5091066;28;20048;-78
2022/11/18 01:17:09;;;;;;;31.85;20.35;;;7.00;99.90;;;;;;5090688;28;20085;-77
2022/11/18 01:19:36;;;;;;;29.13;20.08;;;6.90;99.90;;;;;;5090705;28;20118;-76
2022/11/18 01:22:02;;;;;;;30.92;20.25;;;6.90;99.90;;;;;;5090785;28;20773;-77
2022/11/18 01:24:32;;;;;;;33.47;21.90;;;7.00;99.90;;;;;;5091026;28;20814;-77
2022/11/18 01:26:58;;;;;;;31.42;20.90;;;7.00;99.90;;;;;;5090229;28;20509;-77
2022/11/18 01:29:24;;;;;;;33.55;21.40;;;7.00;99.90;;;;;;5090899;28;20118;-77
2022/11/18 01:31:50;;;;;;;32.97;20.60;;;6.90;99.90;;;;;;5090555;28;20056;-78
2022/11/18 01:34:15;;;;;;;33.83;22.65;;;6.90;99.90;;;;;;5090512;28;20050;-78
2022/11/18 01:36:41;;;;;;;30.00;20.02;;;6.90;99.90;;;;;;5090289;28;20067;-77
2022/11/18 01:39:07;;;;;;;31.75;20.73;;;6.90;99.90;;;;;;5090467;28;20399;-78
2022/11/18 01:41:32;;;;;;;30.02;21.25;;;6.90;99.90;;;;;;5090358;28;20040;-76
2022/11/18 01:44:04;;;;;;;34.08;21.17;;;6.90;99.90;;;;;;5090763;28;20047;-77
2022/11/18 01:46:32;;;;;;;34.83;22.15;;;6.90;99.90;;;;;;5090541;28;20052;-78
2022/11/18 01:49:07;;;;;;;36.30;20.02;;;6.90;99.90;;;;;;5090397;28;20127;-79
2022/11/18 01:51:43;;;;;;;31.85;20.10;;;6.90;99.90;;;;;;5090879;28;20371;-76
2022/11/18 01:54:13;;;;;;;30.08;20.15;;;6.90;99.90;;;;;;5090825;28;20513;-78
2022/11/18 01:56:43;;;;;;;37.92;21.20;;;6.90;99.90;;;;;;5090531;28;20051;-77
2022/11/18 01:59:13;;;;;;;37.22;21.33;;;6.90;99.90;;;;;;5089855;28;20124;-77
2022/11/18 02:01:40;;;;;;;30.90;19.88;;;6.90;99.90;;;;;;5090310;28;20056;-79
2022/11/18 02:04:08;;;;;;;35.10;21.23;;;6.90;99.90;;;;;;5090496;28;20063;-79
2022/11/18 02:06:34;;;;;;;33.13;20.88;;;6.90;99.90;;;;;;5072323;28;20479;-77
2022/11/18 02:09:00;;;;;;;35.83;21.15;;;6.90;99.90;;;;;;5089750;28;20131;-76
2022/11/18 02:14:10;;;;;;;35.78;21.55;;;6.90;99.90;;;;;;5089966;28;20495;-75
2022/11/18 02:16:41;;;;;;;36.70;21.83;;;6.90;99.90;;;;;;5090121;28;20050;-78
2022/11/18 02:19:45;;;;;;;36.47;21.98;;;6.90;99.90;;;;;;5090128;28;20036;-77
2022/11/18 02:22:52;;;;;;;36.15;22.05;;;6.90;99.90;;;;;;5087204;28;20133;-76
2022/11/18 02:25:30;;;;;;;34.35;21.83;;;6.90;99.90;;;;;;5090446;28;20083;-77
2022/11/18 02:28:21;;;;;;;36.75;22.10;;;6.90;99.90;;;;;;5090089;28;20135;-77
2022/11/18 02:31:22;;;;;;;38.72;22.92;;;6.90;99.90;;;;;;5089810;28;20048;-77
2022/11/18 02:33:58;;;;;;;32.58;21.42;;;6.90;99.90;;;;;;5007709;28;20100;-77
2022/11/18 02:36:53;;;;;;;36.47;22.38;;;6.90;99.90;;;;;;5007779;28;20056;-77
2022/11/18 02:39:27;;;;;;;31.98;20.73;;;6.90;99.90;;;;;;5007239;28;20520;-78
2022/11/18 02:41:56;;;;;;;34.53;21.63;;;6.90;99.90;;;;;;5007653;28;20100;-78
2022/11/18 02:44:24;;;;;;;35.90;23.33;;;6.90;99.90;;;;;;5007071;28;20060;-77
2022/11/18 02:46:55;;;;;;;35.45;21.77;;;6.90;99.90;;;;;;5007507;28;20042;-77
2022/11/18 02:49:31;;;;;;;34.80;22.13;;;6.90;99.90;;;;;;5007044;28;20085;-77
2022/11/18 02:51:57;;;;;;;36.78;21.85;;;6.90;99.90;;;;;;5010026;28;20136;-76
2022/11/18 02:54:26;;;;;;;32.05;21.20;;;6.90;99.90;;;;;;5011121;28;20081;-77
2022/11/18 02:56:53;;;;;;;33.00;20.52;;;6.90;99.90;;;;;;5010961;28;20252;-76
2022/11/18 02:59:19;;;;;;;35.22;20.92;;;6.80;99.90;;;;;;5010531;28;20053;-77
2022/11/18 03:01:46;;;;;;;35.08;21.27;;;6.90;99.90;;;;;;4993495;28;20057;-78
2022/11/18 03:04:15;;;;;;;33.72;20.83;;;6.90;99.90;;;;;;5010213;28;20061;-78
2022/11/18 03:06:44;;;;;;;34.65;21.17;;;6.90;99.90;;;;;;5010646;28;20086;-77
2022/11/18 03:09:13;;;;;;;36.30;21.02;;;6.90;99.90;;;;;;4978316;28;20656;-78
2022/11/18 03:11:59;;;;;;;40.28;21.98;;;6.80;99.90;;;;;;5086490;28;20513;-79
2022/11/18 03:14:33;;;;;;;33.13;20.80;;;6.80;99.90;;;;;;5073966;28;20642;-78
2022/11/18 03:17:25;;;;;;;38.70;21.75;;;6.80;99.90;;;;;;5093153;28;20131;-77
2022/11/18 03:20:02;;;;;;;35.72;21.60;;;6.90;99.90;;;;;;5009690;28;20053;-77
2022/11/18 03:22:46;;;;;;;37.38;21.60;;;6.80;99.90;;;;;;5005995;28;20062;-78
2022/11/18 03:25:17;;;;;;;38.90;20.77;;;6.90;99.90;;;;;;4994101;28;20062;-78
2022/11/18 03:27:59;;;;;;;34.88;21.13;;;6.80;99.90;;;;;;5010364;28;20049;-78
2022/11/18 03:30:25;;;;;;;33.28;20.55;;;6.80;99.90;;;;;;5010105;28;20069;-78
2022/11/18 03:32:58;;;;;;;38.83;21.27;;;6.80;99.90;;;;;;4990732;28;20066;-77
2022/11/18 03:35:27;;;;;;;33.58;19.30;;;6.80;99.90;;;;;;4990047;28;20042;-78
2022/11/18 03:38:02;;;;;;;35.28;19.63;;;7.20;99.90;;;;;;4990936;28;20062;-77
2022/11/18 03:40:31;;;;;;;35.47;20.38;;;6.80;99.90;;;;;;4990106;28;20042;-76
2022/11/18 03:43:07;;;;;;;32.22;19.15;;;6.80;99.90;;;;;;4990475;28;20125;-75
2022/11/18 03:46:07;;;;;;;34.17;20.45;;;6.70;99.90;;;;;;4990308;28;20049;-79
2022/11/18 03:48:40;;;;;;;33.38;19.48;;;6.70;99.90;;;;;;4987173;28;20137;-77
2022/11/18 03:51:09;;;;;;;32.58;18.83;;;6.70;99.90;;;;;;4990213;28;20145;-78
2022/11/18 03:53:41;;;;;;;29.20;19.40;;;6.70;99.90;;;;;;4974132;28;20057;-78
2022/11/18 03:56:17;;;;;;;33.35;19.73;;;7.40;99.90;;;;;;5007345;28;20514;-78
2022/11/18 03:58:50;;;;;;;35.78;18.98;;;6.70;99.90;;;;;;5072383;28;20048;-77
2022/11/18 04:01:24;;;;;;;26.80;17.95;;;6.70;99.90;;;;;;5071480;28;20430;-76
2022/11/18 04:03:49;;;;;;;28.65;18.27;;;6.70;99.90;;;;;;5072120;28;20131;-77
2022/11/18 04:06:22;;;;;;;31.52;18.27;;;6.70;99.90;;;;;;5053677;28;20151;-78
2022/11/18 04:08:53;;;;;;;31.33;18.55;;;6.70;99.90;;;;;;5071834;28;20450;-77
2022/11/18 04:14:12;;;;;;;30.08;18.13;;;6.60;99.90;;;;;;5072039;28;20048;-79
2022/11/18 04:16:41;;;;;;;32.38;18.75;;;6.60;99.90;;;;;;5071525;28;20052;-78
2022/11/18 04:19:06;;;;;;;25.95;17.95;;;6.60;99.90;;;;;;5071757;28;20433;-79
2022/11/18 04:21:32;;;;;;;30.27;17.90;;;6.60;99.90;;;;;;5071366;28;20051;-77
2022/11/18 04:23:57;;;;;;;34.17;18.52;;;7.30;99.90;;;;;;5071941;28;20125;-78
2022/11/18 04:26:23;;;;;;;30.80;18.35;;;6.60;99.90;;;;;;5071461;28;20415;-77
2022/11/18 04:28:48;;;;;;;30.60;18.55;;;6.60;99.90;;;;;;5053507;28;20040;-78
2022/11/18 04:31:14;;;;;;;31.00;18.58;;;6.60;99.90;;;;;;5071079;28;20616;-79
2022/11/18 04:33:40;;;;;;;30.95;18.55;;;6.60;99.90;;;;;;5071883;28;20105;-77
2022/11/18 04:36:06;;;;;;;27.83;16.90;;;6.50;99.90;;;;;;5061097;28;20404;-78
2022/11/18 04:38:31;;;;;;;27.27;17.30;;;6.50;99.90;;;;;;5033906;28;20052;-76
2022/11/18 04:40:57;;;;;;;28.65;17.95;;;6.50;99.90;;;;;;5053465;28;20140;-78
2022/11/18 04:43:22;;;;;;;31.40;17.83;;;6.50;99.90;;;;;;5037367;28;20049;-77
2022/11/18 04:45:48;;;;;;;29.42;18.27;;;6.50;99.90;;;;;;5033468;28;20057;-78
2022/11/18 04:48:14;;;;;;;30.98;18.02;;;6.50;99.90;;;;;;5033396;28;20120;-78
2022/11/18 04:50:40;;;;;;;29.77;18.40;;;6.50;99.90;;;;;;5046574;28;20048;-76
2022/11/18 04:53:06;;;;;;;29.27;17.90;;;6.50;99.90;;;;;;5069536;28;20044;-78
2022/11/18 04:55:34;;;;;;;26.48;17.92;;;6.50;99.90;;;;;;5049919;28;20750;-77
2022/11/18 04:58:00;;;;;;;26.45;16.55;;;6.50;99.90;;;;;;5073093;28;20097;-78
2022/11/18 05:00:25;;;;;;;30.00;18.30;;;6.50;99.90;;;;;;5091546;28;20048;-77
2022/11/18 05:02:51;;;;;;;31.80;18.13;;;6.50;99.90;;;;;;5073329;28;20091;-77
2022/11/18 05:05:17;;;;;;;28.20;18.55;;;6.40;99.90;;;;;;5053393;28;20052;-78
2022/11/18 05:07:42;;;;;;;30.05;17.60;;;6.50;99.90;;;;;;5071156;28;20037;-77
2022/11/18 05:10:08;;;;;;;26.15;17.02;;;6.50;99.90;;;;;;5071014;28;20828;-77
2022/11/18 05:12:49;;;;;;;26.58;17.00;;;6.40;99.90;;;;;;5065190;28;20103;-77
2022/11/18 05:15:15;;;;;;;26.95;17.20;;;6.40;99.90;;;;;;5032527;28;20480;-78
2022/11/18 05:17:41;;;;;;;28.63;17.13;;;6.40;99.90;;;;;;5050314;28;20040;-79
2022/11/18 05:20:08;;;;;;;30.05;17.63;;;6.90;99.90;;;;;;5066602;28;20047;-77
2022/11/18 05:22:33;;;;;;;29.27;17.42;;;6.40;99.90;;;;;;5079746;28;20553;-78
2022/11/18 05:24:59;;;;;;;26.02;16.77;;;6.40;99.90;;;;;;5077753;28;20044;-77
2022/11/18 05:27:25;;;;;;;27.55;16.80;;;6.40;99.90;;;;;;5035020;28;20056;-77
2022/11/18 05:29:51;;;;;;;27.33;17.08;;;6.40;99.90;;;;;;5070710;28;20067;-78
2022/11/18 05:32:16;;;;;;;24.65;15.40;;;6.40;99.90;;;;;;5083824;28;20089;-78
2022/11/18 05:34:42;;;;;;;26.88;16.40;;;6.40;99.90;;;;;;5090383;28;20520;-79
2022/11/18 05:37:08;;;;;;;26.63;16.27;;;6.40;99.90;;;;;;5072740;28;20052;-78
2022/11/18 05:39:33;;;;;;;28.10;16.55;;;6.40;99.90;;;;;;5090554;28;20040;-78
2022/11/18 05:44:44;;;;;;;28.15;16.13;;;6.40;99.90;;;;;;5076492;28;20391;-79
2022/11/18 05:47:10;;;;;;;27.35;16.63;;;6.40;99.90;;;;;;5090363;28;20482;-77
2022/11/18 05:49:36;;;;;;;27.65;16.83;;;6.40;99.90;;;;;;5068631;28;20059;-77
2022/11/18 05:52:01;;;;;;;29.08;17.70;;;6.40;99.90;;;;;;5070178;28;20479;-78
2022/11/18 05:54:27;;;;;;;32.15;17.90;;;6.40;99.90;;;;;;5068474;28;20123;-78
2022/11/18 05:56:53;;;;;;;26.02;16.05;;;7.00;99.90;;;;;;5082739;28;20055;-76
2022/11/18 05:59:18;;;;;;;32.30;17.42;;;6.30;99.90;;;;;;5090264;28;20040;-77
2022/11/18 06:01:47;;;;;;;32.30;17.15;;;6.30;99.90;;;;;;5090520;28;20048;-76
2022/11/18 06:04:38;;;;;;;30.08;17.60;;;6.30;99.90;;;;;;5089433;28;20043;-78
2022/11/18 06:07:19;;;;;;;30.20;18.05;;;6.30;99.90;;;;;;5071967;28;20139;-78
2022/11/18 06:09:50;;;;;;;32.60;18.10;;;6.30;99.90;;;;;;5090167;28;20119;-79
2022/11/18 06:12:20;;;;;;;35.88;17.17;;;6.40;99.90;;;;;;5089976;28;20044;-77
2022/11/18 06:15:02;;;;;;;31.83;17.83;;;6.30;99.90;;;;;;5089886;28;20066;-79
2022/11/18 06:17:32;;;;;;;31.30;17.63;;;6.30;99.90;;;;;;5072011;28;20075;-77
2022/11/18 06:19:58;;;;;;;31.75;17.63;;;6.30;99.90;;;;;;5089429;28;20059;-77
2022/11/18 06:22:25;;;;;;;32.53;17.73;;;6.30;99.90;;;;;;5089370;28;20048;-77
2022/11/18 06:24:50;;;;;;;31.65;17.73;;;6.30;99.90;;;;;;5090226;28;20040;-79
2022/11/18 06:27:17;;;;;;;29.80;17.95;;;6.30;99.90;;;;;;5089827;28;20032;-78
2022/11/18 06:29:42;;;;;;;31.25;17.33;;;6.30;99.90;;;;;;5090001;28;20091;-78
2022/11/18 06:32:08;;;;;;;38.30;18.23;;;6.30;99.90;;;;;;5089854;28;20098;-77
2022/11/18 06:34:34;;;;;;;32.90;17.33;;;6.20;99.90;;;;;;5089178;28;20399;-79
2022/11/18 06:37:10;;;;;;;37.88;18.13;;;6.20;99.90;;;;;;5089993;28;20830;-80
2022/11/18 06:39:36;;;;;;;33.95;18.70;;;6.20;99.90;;;;;;5090204;28;20044;-78
2022/11/18 06:42:02;;;;;;;37.63;18.27;;;6.60;99.90;;;;;;5089835;28;20047;-77
2022/11/18 06:44:27;;;;;;;32.35;18.65;;;6.20;99.90;;;;;;5089485;28;20085;-77
2022/11/18 06:46:56;;;;;;;36.60;18.30;;;6.20;99.90;;;;;;5089694;28;20080;-77
2022/11/18 06:49:23;;;;;;;34.58;18.48;;;6.20;99.90;;;;;;5088705;28;20089;-77
2022/11/18 06:51:48;;;;;;;35.17;18.50;;;6.20;99.90;;;;;;5089640;28;20040;-78
2022/11/18 06:54:14;;;;;;;34.88;18.90;;;6.20;99.90;;;;;;5089463;28;20048;-78
2022/11/18 06:56:40;;;;;;;32.22;18.08;;;6.20;99.90;;;;;;5089399;28;20055;-78
2022/11/18 06:59:06;;;;;;;38.17;18.00;;;6.10;99.90;;;;;;5088995;28;20111;-79
2022/11/18 07:01:35;;;;;;;34.53;18.30;;;6.20;99.90;;;;;;5089690;28;20039;-76
2022/11/18 07:04:01;;;;;;;36.78;18.60;;;6.20;99.90;;;;;;5089542;28;20044;-78
2022/11/18 07:06:29;;;;;;;32.35;17.33;;;6.20;99.90;;;;;;5089287;28;20395;-78
2022/11/18 07:08:55;;;;;;;39.92;19.23;;;6.20;99.90;;;;;;5089513;28;20089;-81
2022/11/18 07:11:25;;;;;;;36.80;18.58;;;6.20;99.90;;;;;;5089109;28;20606;-78
2022/11/18 07:13:51;;;;;;;41.58;18.98;;;6.10;99.90;;;;;;5071002;28;20055;-82
2022/11/18 07:16:19;;;;;;;34.10;18.13;;;6.10;99.90;;;;;;5089215;28;20048;-77
2022/11/18 07:18:46;;;;;;;33.22;17.95;;;6.10;99.90;;;;;;5089274;28;20047;-79
2022/11/18 07:21:14;;;;;;;34.65;18.02;;;6.50;99.90;;;;;;5088539;28;20104;-76
2022/11/18 07:23:41;;;;;;;32.92;17.17;;;6.10;99.90;;;;;;5067320;28;20048;-77
2022/11/18 07:26:07;;;;;;;36.67;17.50;;;6.10;99.90;;;;;;5083548;28;20043;-77
2022/11/18 07:28:33;;;;;;;32.92;17.58;;;6.10;99.90;;;;;;5089269;28;20419;-77
2022/11/18 07:31:07;;;;;;;37.03;17.88;;;6.10;99.90;;;;;;5070632;28;20526;-78
2022/11/18 07:33:33;;;;;;;33.30;17.33;;;6.10;99.90;;;;;;5067522;28;20063;-78
2022/11/18 07:36:00;;;;;;;37.08;17.73;;;6.10;99.90;;;;;;5070696;28;20476;-76
2022/11/18 07:38:26;;;;;;;32.50;16.40;;;6.10;99.90;;;;;;5070862;28;20047;-78
2022/11/18 07:40:52;;;;;;;33.88;17.13;;;6.00;99.90;;;;;;5087588;28;20044;-79
2022/11/18 07:43:17;;;;;;;38.65;17.65;;;6.10;99.90;;;;;;5092809;28;20044;-78
2022/11/18 07:45:43;;;;;;;36.67;18.10;;;6.00;99.90;;;;;;5093094;28;20490;-77
2022/11/18 07:48:08;;;;;;;35.13;17.48;;;6.00;99.90;;;;;;5092102;28;20055;-79
2022/11/18 07:50:34;;;;;;;35.25;17.02;;;6.00;99.90;;;;;;5074278;28;20071;-79
2022/11/18 07:53:00;;;;;;;35.72;16.35;;;6.00;99.90;;;;;;5092530;28;20044;-78
2022/11/18 07:55:25;;;;;;;34.53;16.70;;;6.00;99.90;;;;;;5092654;28;20052;-78
2022/11/18 07:57:51;;;;;;;34.80;17.00;;;6.00;99.90;;;;;;5092454;28;20040;-78
2022/11/18 08:00:17;;;;;;;32.75;16.52;;;6.00;99.90;;;;;;5092738;28;20052;-78
2022/11/18 08:02:43;;;;;;;30.08;15.50;;;5.90;99.90;;;;;;5091787;28;20048;-78
2022/11/18 08:05:09;;;;;;;29.13;16.50;;;5.90;99.90;;;;;;5070620;28;20052;-80
2022/11/18 08:07:35;;;;;;;30.05;15.93;;;5.90;99.90;;;;;;5070623;28;20054;-78
2022/11/18 08:10:02;;;;;;;28.35;16.25;;;5.90;99.90;;;;;;5084714;28;20036;-79
2022/11/18 08:12:29;;;;;;;30.55;15.57;;;5.90;99.90;;;;;;5092479;28;20059;-77
2022/11/18 08:14:55;;;;;;;29.05;15.05;;;5.90;99.90;;;;;;5074151;28;20127;-79
2022/11/18 08:17:21;;;;;;;29.65;15.57;;;5.90;99.90;;;;;;5074604;28;20062;-79
2022/11/18 08:19:47;;;;;;;24.08;14.13;;;6.00;99.90;;;;;;5092368;28;20037;-77
2022/11/18 08:22:12;;;;;;;30.85;14.98;;;5.90;99.90;;;;;;5092055;28;20471;-79
2022/11/18 08:24:38;;;;;;;30.77;15.13;;;6.00;99.90;;;;;;5092102;28;20098;-79
2022/11/18 08:27:03;;;;;;;28.83;14.80;;;6.00;99.90;;;;;;5092073;28;20048;-78
2022/11/18 08:29:29;;;;;;;28.33;15.13;;;6.00;99.90;;;;;;5069479;28;20114;-80
2022/11/18 08:31:55;;;;;;;30.58;16.75;;;6.00;99.90;;;;;;5080228;28;20059;-79
2022/11/18 08:34:20;;;;;;;34.45;16.80;;;6.00;99.90;;;;;;5091553;28;20392;-78
2022/11/18 08:36:46;;;;;;;29.90;15.45;;;6.00;99.90;;;;;;5073321;28;20052;-80
2022/11/18 08:39:11;;;;;;;30.45;15.82;;;6.00;99.90;;;;;;5091568;28;20051;-80
2022/11/18 08:41:40;;;;;;;31.52;16.27;;;6.00;99.90;;;;;;5091947;28;20109;-78
2022/11/18 08:44:06;;;;;;;30.00;15.18;;;6.00;99.90;;;;;;5091711;28;20090;-79
2022/11/18 08:46:32;;;;;;;27.52;14.30;;;6.50;99.90;;;;;;5091324;28;20070;-76
2022/11/18 08:48:58;;;;;;;25.00;13.35;;;6.10;99.90;;;;;;5090282;28;20052;-77
2022/11/18 08:51:24;;;;;;;27.65;13.38;;;6.00;99.90;;;;;;5091705;28;20044;-78
2022/11/18 08:53:50;;;;;;;23.98;13.13;;;6.00;99.90;;;;;;5091156;28;20059;-79
2022/11/18 08:56:18;;;;;;;21.55;12.88;;;6.00;99.90;;;;;;5082433;28;20036;-77
2022/11/18 08:58:44;;;;;;;24.30;12.40;;;6.10;99.90;;;;;;5091850;28;20048;-78
2022/11/18 09:01:10;;;;;;;24.08;12.05;;;6.00;99.90;;;;;;5091484;28;20048;-75
2022/11/18 09:03:36;;;;;;;18.35;11.57;;;6.10;99.90;;;;;;5091648;28;20036;-77
2022/11/18 09:06:09;;;;;;;21.17;11.05;;;6.10;99.90;;;;;;5073069;28;20501;-75
2022/11/18 09:08:35;;;;;;;21.25;11.15;;;6.10;99.90;;;;;;5090977;28;20092;-78
2022/11/18 09:11:09;;;;;;;19.30;11.25;;;6.10;99.90;;;;;;5091490;28;20052;-77
2022/11/18 09:13:35;;;;;;;19.02;11.30;;;6.10;99.90;;;;;;5080178;28;20102;-75
2022/11/18 09:16:02;;;;;;;22.52;11.93;;;6.10;99.90;;;;;;5082241;28;20479;-79
2022/11/18 09:18:28;;;;;;;19.35;11.40;;;6.10;99.90;;;;;;5087827;28;20036;-78
2022/11/18 09:20:59;;;;;;;22.15;11.70;;;6.10;99.90;;;;;;5052889;28;20041;-79
2022/11/18 09:23:25;;;;;;;21.10;12.40;;;6.10;99.90;;;;;;5070538;28;20446;-79
2022/11/18 09:26:09;;;;;;;19.08;11.20;;;6.10;99.90;;;;;;5070730;28;20032;-81
2022/11/18 09:28:35;;;;;;;20.55;12.02;;;6.10;99.90;;;;;;5070637;28;20128;-79
2022/11/18 09:31:09;;;;;;;19.58;11.15;;;6.10;99.90;;;;;;5070106;28;20040;-81
2022/11/18 09:33:36;;;;;;;25.08;11.95;;;6.10;99.90;;;;;;5070687;28;20454;-79
2022/11/18 09:36:03;;;;;;;19.58;11.23;;;6.10;99.90;;;;;;5065984;28;20109;-79
2022/11/18 09:38:30;;;;;;;20.60;11.05;;;6.10;99.90;;;;;;5090769;28;20058;-83
2022/11/18 09:41:12;;;;;;;22.38;10.70;;;6.10;99.90;;;;;;5090402;28;20123;-79
2022/11/18 09:44:03;;;;;;;15.93;10.57;;;6.10;99.90;;;;;;5090465;28;20062;-79
2022/11/18 09:46:47;;;;;;;23.42;11.20;;;6.10;99.90;;;;;;5090753;28;20403;-80
2022/11/18 09:49:32;;;;;;;19.67;11.07;;;6.10;99.90;;;;;;5090415;28;20506;-79
2022/11/18 09:52:04;;;;;;;17.83;11.02;;;6.10;99.90;;;;;;5089126;28;20079;-79
2022/11/18 09:54:35;;;;;;;18.85;10.25;;;6.10;99.90;;;;;;5072163;28;20048;-78
2022/11/18 09:57:01;;;;;;;20.48;10.80;;;6.10;99.90;;;;;;5090507;28;20036;-79
2022/11/18 09:59:30;;;;;;;20.90;10.63;;;6.10;99.90;;;;;;5071821;28;20135;-78
2022/11/18 10:02:24;;;;;;;18.48;10.40;;;6.10;99.90;;;;;;5090073;28;20044;-80
2022/11/18 10:04:50;;;;;;;18.98;11.10;;;6.10;99.90;;;;;;5090465;28;20052;-78
2022/11/18 10:07:22;;;;;;;21.88;11.18;;;6.10;99.90;;;;;;5090543;28;20051;-82
2022/11/18 10:09:53;;;;;;;20.90;12.35;;;6.10;99.90;;;;;;5089400;28;20063;-81
2022/11/18 10:12:36;;;;;;;21.33;11.70;;;6.10;99.90;;;;;;5089019;28;20062;-79
2022/11/18 10:15:22;;;;;;;20.85;11.20;;;6.10;99.90;;;;;;5072126;28;20044;-79
2022/11/18 10:18:11;;;;;;;19.08;11.88;;;6.00;99.90;;;;;;5090390;28;20066;-79
2022/11/18 10:20:50;;;;;;;23.70;11.68;;;6.10;99.90;;;;;;5089958;28;20047;-78
2022/11/18 10:23:32;;;;;;;19.83;12.93;;;6.00;99.90;;;;;;5090086;28;20044;-80
2022/11/18 10:25:58;;;;;;;22.00;11.70;;;6.10;99.90;;;;;;5089889;28;20134;-80
2022/11/18 10:28:29;;;;;;;18.55;10.25;;;6.10;99.90;;;;;;5089867;28;20127;-83
2022/11/18 10:31:10;;;;;;;19.13;11.48;;;6.80;99.90;;;;;;5089839;28;20083;-80
2022/11/18 10:33:37;;;;;;;17.55;10.15;;;6.10;99.90;;;;;;5089858;28;20518;-80
2022/11/18 10:36:15;;;;;;;20.65;10.65;;;6.00;99.90;;;;;;5089785;28;20047;-79
2022/11/18 10:38:41;;;;;;;17.35;10.13;;;6.10;99.90;;;;;;5089979;28;20044;-80
2022/11/18 10:41:19;;;;;;;19.60;10.52;;;6.00;99.90;;;;;;5071385;28;20048;-80
2022/11/18 10:43:45;;;;;;;19.45;10.88;;;6.00;99.90;;;;;;5089783;28;20036;-78
2022/11/18 10:46:27;;;;;;;19.67;11.05;;;6.00;99.90;;;;;;5081683;28;20040;-79
2022/11/18 10:49:07;;;;;;;22.65;11.45;;;6.00;99.90;;;;;;5076156;28;20053;-76
2022/11/18 10:51:33;;;;;;;18.75;11.80;;;5.90;99.90;;;;;;5055305;28;20059;-77
2022/11/18 10:54:17;;;;;;;19.38;11.63;;;5.90;99.90;;;;;;5089608;28;20036;-78
2022/11/18 10:56:50;;;;;;;23.63;12.57;;;5.80;99.90;;;;;;5076572;28;20037;-76
2022/11/18 10:59:37;;;;;;;24.33;12.27;;;5.80;99.90;;;;;;5064875;28;20049;-78
2022/11/18 11:02:18;;;;;;;22.90;13.18;;;5.80;99.90;;;;;;5051679;28;20127;-77
2022/11/18 11:04:46;;;;;;;25.70;13.90;;;5.70;99.90;;;;;;5064302;28;20067;-78
2022/11/18 11:07:31;;;;;;;22.20;11.85;;;5.70;99.90;;;;;;5050867;28;20052;-78
2022/11/18 11:10:18;;;;;;;20.88;11.95;;;5.70;99.90;;;;;;5069053;28;20090;-78
2022/11/18 11:12:50;;;;;;;19.35;11.13;;;5.70;99.90;;;;;;5053593;28;20056;-79
2022/11/18 11:15:25;;;;;;;21.50;11.45;;;5.70;99.90;;;;;;5072204;28;20406;-77
2022/11/18 11:20:40;;;;;;;21.35;10.95;;;6.20;99.90;;;;;;5052974;28;20507;-79
2022/11/18 11:23:10;;;;;;;18.20;11.40;;;5.70;99.90;;;;;;5051414;28;20040;-77
2022/11/18 11:25:41;;;;;;;21.67;11.73;;;5.60;99.90;;;;;;5073153;28;20052;-77
2022/11/18 11:28:26;;;;;;;19.90;11.43;;;5.60;99.90;;;;;;5072591;28;20392;-77
2022/11/18 11:31:11;;;;;;;;;;;5.60;99.90;;;;;;5072887;28;20052;-78
2022/11/18 11:34:00;;;;;;;22.42;12.80;;;5.50;99.90;;;;;;5090993;28;19923;-76
2022/11/18 11:36:49;;;;;;;21.83;13.00;;;5.50;99.90;;;;;;5092740;28;20044;-76
2022/11/18 11:39:36;;;;;;;28.05;14.70;;;5.50;99.90;;;;;;5074985;28;20086;-78
2022/11/18 11:42:09;;;;;;;25.75;14.68;;;5.40;99.90;;;;;;5093236;28;20768;-78
2022/11/18 11:45:05;;;;;;;29.15;16.02;;;5.40;99.90;;;;;;5074432;28;20048;-79
2022/11/18 11:47:55;;;;;;;26.23;16.23;;;5.40;99.90;;;;;;5092631;28;20048;-77
2022/11/18 11:50:24;;;;;;;29.42;16.40;;;5.30;99.90;;;;;;5093060;28;20063;-78
2022/11/18 11:53:04;;;;;;;33.55;17.15;;;5.30;99.90;;;;;;5092921;28;20486;-78
2022/11/18 11:55:47;;;;;;;36.60;18.33;;;5.30;99.90;;;;;;5092773;28;20051;-82
2022/11/18 11:58:41;;;;;;;33.75;18.30;;;5.30;99.90;;;;;;5091955;28;20055;-78
2022/11/18 12:01:25;;;;;;;29.55;16.50;;;5.30;99.90;;;;;;5092586;28;20494;-78
2022/11/18 12:04:05;;;;;;;28.30;15.38;;;5.30;99.90;;;;;;5074700;28;20044;-78
2022/11/18 12:06:31;;;;;;;29.25;16.30;;;5.20;99.90;;;;;;5092275;28;20055;-79
2022/11/18 12:09:20;;;;;;;31.17;16.60;;;5.20;99.90;;;;;;5092251;28;20042;-79
2022/11/18 12:11:55;;;;;;;27.90;15.55;;;5.10;99.90;;;;;;5092296;28;20558;-78
2022/11/18 12:14:45;;;;;;;29.45;15.52;;;5.10;99.90;;;;;;5074019;28;20047;-79
2022/11/18 12:17:29;;;;;;;33.08;16.55;;;5.00;99.90;;;;;;5092159;28;20036;-79
2022/11/18 12:19:55;;;;;;;33.38;15.57;;;5.10;99.90;;;;;;5092036;28;20040;-83
2022/11/18 12:22:21;;;;;;;29.70;13.90;;;5.00;99.90;;;;;;5090420;28;20479;-79
2022/11/18 12:24:47;;;;;;;28.45;15.77;;;5.50;99.90;;;;;;5092194;28;20051;-80
2022/11/18 12:27:31;;;;;;;28.08;15.73;;;4.90;99.90;;;;;;5074317;28;20130;-79
2022/11/18 12:30:02;;;;;;;24.20;14.25;;;4.90;99.90;;;;;;5054106;28;20041;-78
2022/11/18 12:32:42;;;;;;;31.38;14.65;;;4.90;99.90;;;;;;5071815;28;20056;-79
2022/11/18 12:35:10;;;;;;;32.03;16.58;;;4.90;99.90;;;;;;5072034;28;20049;-77
2022/11/18 12:37:56;;;;;;;25.90;15.70;;;4.90;99.90;;;;;;5053913;28;20044;-78
2022/11/18 12:40:42;;;;;;;28.77;16.23;;;4.90;99.90;;;;;;5077845;28;20115;-79
2022/11/18 12:43:49;;;;;;;28.02;15.18;;;4.90;99.90;;;;;;5073559;28;20475;-79
2022/11/18 12:46:33;;;;;;;24.95;13.63;;;4.90;99.90;;;;;;5091303;28;20040;-79
2022/11/18 12:49:21;;;;;;;26.75;14.50;;;4.90;99.90;;;;;;5091869;28;20059;-78
2022/11/18 12:51:58;;;;;;;27.95;14.13;;;4.90;99.90;;;;;;5073326;28;20051;-79
2022/11/18 12:54:44;;;;;;;30.30;15.80;;;4.90;99.90;;;;;;5091561;28;20048;-79
2022/11/18 12:57:31;;;;;;;30.73;15.65;;;4.90;99.90;;;;;;5091709;28;20083;-78
2022/11/18 12:59:58;;;;;;;31.23;15.00;;;4.90;99.90;;;;;;5091447;28;20065;-79
2022/11/18 13:02:24;;;;;;;27.40;15.00;;;5.60;99.90;;;;;;5091697;28;20183;-77
2022/11/18 13:05:10;;;;;;;27.95;14.65;;;4.80;99.90;;;;;;5091137;28;20039;-81
2022/11/18 13:10:33;;;;;;;32.25;15.63;;;4.80;99.90;;;;;;5091620;28;20143;-78
2022/11/18 13:12:59;;;;;;;28.42;16.80;;;4.80;99.90;;;;;;5091476;28;20051;-78
2022/11/18 13:18:18;;;;;;;26.63;14.55;;;4.90;99.90;;;;;;5070948;28;20636;-79
2022/11/18 13:20:57;;;;;;;30.52;15.35;;;4.80;99.90;;;;;;5080574;28;20044;-83